createdAt,value
2022-10-09T00:00:57.855Z,11.9
2022-10-09T00:05:59.875Z,12.1
2022-10-09T00:11:02.092Z,11.7
2022-10-09T00:16:04.008Z,11.1
2022-10-09T00:21:05.941Z,12
2022-10-09T00:26:07.857Z,11.9
2022-10-09T00:31:09.976Z,12.2
2022-10-09T00:36:12.068Z,12.3
2022-10-09T00:41:13.948Z,12.1
2022-10-09T00:46:16.186Z,11.8
2022-10-09T00:51:18.431Z,12.1
2022-10-09T00:56:20.350Z,12.2
2022-10-09T01:01:22.421Z,12.7
2022-10-09T01:06:25.030Z,12.6
2022-10-09T01:11:27.155Z,12.5
2022-10-09T01:16:29.342Z,13.1
2022-10-09T01:21:31.407Z,12.7
2022-10-09T01:26:33.270Z,12.9
2022-10-09T01:31:35.670Z,13.1
2022-10-09T01:36:36.255Z,12.8
2022-10-09T01:41:38.105Z,13.4
2022-10-09T01:46:40.324Z,14.4
2022-10-09T01:51:42.558Z,14.3
2022-10-09T01:56:44.561Z,14.6
2022-10-09T02:01:46.661Z,15
2022-10-09T02:06:49.530Z,15.7
2022-10-09T02:11:51.562Z,14.5
2022-10-09T02:16:53.860Z,12.7
2022-10-09T02:21:56.120Z,12.3
2022-10-09T02:26:58.011Z,12.5
2022-10-09T02:32:00.167Z,12.1
2022-10-09T02:37:02.277Z,12.4
2022-10-09T02:42:04.223Z,12.8
2022-10-09T02:47:06.652Z,13.2
2022-10-09T02:52:08.728Z,13.9
2022-10-09T02:57:10.861Z,14.7
2022-10-09T03:02:13.118Z,14.8
2022-10-09T03:07:16.433Z,15.5
2022-10-09T03:12:18.423Z,15.6
2022-10-09T03:17:20.529Z,15.3
2022-10-09T03:22:22.430Z,14.8
2022-10-09T03:27:24.295Z,15
2022-10-09T03:32:26.658Z,14.8
2022-10-09T03:37:28.960Z,15.2
2022-10-09T03:42:30.867Z,15.3
2022-10-09T03:47:33.004Z,15.3
2022-10-09T03:52:34.879Z,16.6
2022-10-09T03:57:36.953Z,16.2
2022-10-09T04:02:39.090Z,16.7
2022-10-09T04:07:41.866Z,16.8
2022-10-09T04:12:44.027Z,16.4
2022-10-09T04:17:46.197Z,16.9
2022-10-09T04:22:48.719Z,17.5
2022-10-09T04:27:51.704Z,17.6
2022-10-09T04:32:54.038Z,17.7
2022-10-09T04:37:56.180Z,19.1
2022-10-09T04:42:58.161Z,18.6
2022-10-09T04:48:00.275Z,18.5
2022-10-09T04:53:02.149Z,18.7
2022-10-09T04:58:04.084Z,19.8
2022-10-09T05:03:06.297Z,19.7
2022-10-09T05:08:08.424Z,20
2022-10-09T05:13:10.253Z,20.7
2022-10-09T05:18:13.012Z,21.3
2022-10-09T05:23:15.177Z,19.9
2022-10-09T05:28:17.278Z,19.9
2022-10-09T05:33:19.534Z,19.8
2022-10-09T05:38:21.535Z,19.8
2022-10-09T05:43:23.742Z,19.9
2022-10-09T05:48:25.912Z,18.5
2022-10-09T05:53:27.852Z,16.2
2022-10-09T05:58:29.766Z,23.8
2022-10-09T06:03:31.749Z,20.1
2022-10-09T06:08:33.842Z,15.7
2022-10-09T06:13:35.816Z,14.5
2022-10-09T06:18:37.965Z,13
2022-10-09T06:23:40.015Z,13.2
2022-10-09T06:28:42.254Z,26.5
2022-10-09T06:33:42.812Z,12
2022-10-09T06:38:44.950Z,10.4
2022-10-09T06:43:46.970Z,10.2
2022-10-09T06:48:49.039Z,8.9
2022-10-09T06:53:51.153Z,9.9
2022-10-09T06:58:53.250Z,12.6
2022-10-09T07:03:55.196Z,9.7
2022-10-09T07:08:57.512Z,9.2
2022-10-09T07:13:59.446Z,8.8
2022-10-09T07:19:01.411Z,8.2
2022-10-09T07:24:03.481Z,8.1
2022-10-09T07:29:05.457Z,7.3
2022-10-09T07:34:07.361Z,7.4
2022-10-09T07:39:09.265Z,6.8
2022-10-09T07:44:12.170Z,5.9
2022-10-09T07:49:15.429Z,5.5
2022-10-09T07:54:17.603Z,5.3
2022-10-09T07:59:19.516Z,4.9
2022-10-09T08:04:21.572Z,4.8
2022-10-09T08:09:23.816Z,4.3
2022-10-09T08:14:25.783Z,4.5
2022-10-09T08:19:28.024Z,3.8
2022-10-09T08:24:30.295Z,4.3
2022-10-09T08:29:34.614Z,3.7
2022-10-09T08:34:42.471Z,4.4
2022-10-09T08:39:45.652Z,3.8
2022-10-09T08:44:47.758Z,3.3
2022-10-09T08:49:49.715Z,3.3
2022-10-09T08:54:51.668Z,3.3
2022-10-09T08:59:53.548Z,3.3
2022-10-09T09:04:55.850Z,3.5
2022-10-09T09:09:58.631Z,3.9
2022-10-09T09:15:00.660Z,3.5
2022-10-09T09:20:03.439Z,3.7
2022-10-09T09:25:05.653Z,4.1
2022-10-09T09:30:07.565Z,3.8
2022-10-09T09:35:10.057Z,5.3
2022-10-09T09:40:45.981Z,4
2022-10-09T09:45:18.897Z,4.2
2022-10-09T09:50:52.796Z,4.1
2022-10-09T09:55:29.090Z,4.3
2022-10-09T10:00:31.268Z,4
2022-10-09T10:05:33.900Z,4.2
2022-10-09T10:10:36.300Z,4.4
2022-10-09T10:15:38.235Z,4.1
2022-10-09T10:20:40.566Z,4.9
2022-10-09T10:25:43.011Z,4.2
2022-10-09T10:30:45.021Z,4.6
2022-10-09T10:35:47.012Z,4.3
2022-10-09T10:40:49.025Z,4.4
2022-10-09T10:45:51.082Z,4.8
2022-10-09T10:50:53.422Z,4.2
2022-10-09T10:55:55.579Z,5
2022-10-09T11:01:05.543Z,4.6
2022-10-09T11:06:08.028Z,4.2
2022-10-09T11:11:10.230Z,4.2
2022-10-09T11:16:12.453Z,4.1
2022-10-09T11:21:14.690Z,4.4
2022-10-09T11:26:16.676Z,12.1
2022-10-09T11:31:19.244Z,4.4
2022-10-09T11:36:22.899Z,4.4
2022-10-09T11:41:25.047Z,3.9
2022-10-09T11:46:27.096Z,4
2022-10-09T11:51:29.430Z,4.7
2022-10-09T11:56:31.392Z,3.7
2022-10-09T12:01:33.707Z,3.9
2022-10-09T12:06:36.467Z,3.9
2022-10-09T12:11:40.801Z,3.8
2022-10-09T12:16:42.989Z,3.7
2022-10-09T12:21:45.852Z,4
2022-10-09T12:26:48.015Z,7.5
2022-10-09T12:31:49.990Z,3.7
2022-10-09T12:36:52.009Z,3.5
2022-10-09T12:41:54.101Z,3.3
2022-10-09T12:46:56.350Z,3.6
2022-10-09T12:52:00.390Z,3.5
2022-10-09T12:57:02.530Z,3.5
2022-10-09T13:02:05.098Z,3.3
2022-10-09T13:07:07.850Z,3.3
2022-10-09T13:12:10.122Z,3.5
2022-10-09T13:17:12.248Z,3.4
2022-10-09T13:22:14.395Z,3.5
2022-10-09T13:27:16.435Z,3
2022-10-09T13:32:18.468Z,3.8
2022-10-09T13:37:20.394Z,3.3
2022-10-09T13:42:22.314Z,3.2
2022-10-09T13:47:25.604Z,3
2022-10-09T13:52:29.069Z,2.6
2022-10-09T13:57:31.385Z,8.4
2022-10-09T14:02:33.674Z,2.8
2022-10-09T14:07:36.082Z,2.8
2022-10-09T14:12:38.867Z,2.7
2022-10-09T14:17:40.961Z,2.7
2022-10-09T14:22:43.247Z,2.8
2022-10-09T14:27:45.423Z,2.9
2022-10-09T14:32:48.083Z,2.7
2022-10-09T14:37:51.731Z,2.3
2022-10-09T14:42:53.871Z,2.1
2022-10-09T14:47:55.805Z,2.1
2022-10-09T14:52:57.811Z,2.2
2022-10-09T14:57:59.827Z,2.3
2022-10-09T15:03:01.781Z,5.3
2022-10-09T15:08:03.971Z,2.3
2022-10-09T15:13:06.213Z,2.4
2022-10-09T15:18:08.262Z,2.3
2022-10-09T15:23:10.755Z,2.5
2022-10-09T15:28:12.936Z,2.6
2022-10-09T15:33:14.921Z,2.7
2022-10-09T15:38:16.918Z,3
2022-10-09T15:43:19.007Z,2.3
2022-10-09T15:48:21.114Z,2.1
2022-10-09T15:53:23.434Z,1.8
2022-10-09T15:58:25.614Z,1.8
2022-10-09T16:03:27.828Z,1.8
2022-10-09T16:08:28.657Z,1.8
2022-10-09T16:13:31.220Z,1.8
2022-10-09T16:18:33.375Z,1.6
2022-10-09T16:23:35.555Z,1.6
2022-10-09T16:28:37.761Z,1.5
2022-10-09T16:33:40.215Z,1.6
2022-10-09T16:38:42.422Z,7.8
2022-10-09T16:43:42.828Z,2.7
2022-10-09T16:48:43.187Z,3
2022-10-09T16:53:43.876Z,2.6
2022-10-09T16:58:44.245Z,2.7
2022-10-09T17:03:44.576Z,5.6
2022-10-09T17:08:45.121Z,2.9
2022-10-09T17:13:45.563Z,3.2
2022-10-09T17:18:45.913Z,2.9
2022-10-09T17:23:46.457Z,2.9
2022-10-09T17:28:46.996Z,3.4
2022-10-09T17:33:47.383Z,2.6
2022-10-09T17:38:48.057Z,2.8
2022-10-09T17:43:48.439Z,5.6
2022-10-09T17:48:48.769Z,3.2
2022-10-09T17:53:49.262Z,3.5
2022-10-09T17:58:49.653Z,2.5
2022-10-09T18:03:50.039Z,2.9
2022-10-09T18:08:50.479Z,3
2022-10-09T18:13:51.125Z,2.7
2022-10-09T18:21:21.682Z,2.9
2022-10-09T18:23:52.478Z,2.8
2022-10-09T18:28:53.020Z,2.9
2022-10-09T18:33:53.666Z,3.4
2022-10-09T18:38:56.970Z,2.5
2022-10-09T18:43:57.583Z,2.6
2022-10-09T18:48:58.256Z,2.5
2022-10-09T18:53:58.766Z,2.4
2022-10-09T18:58:59.153Z,2.4
2022-10-09T19:03:59.546Z,15.9
2022-10-09T19:08:59.915Z,2.4
2022-10-09T19:14:00.267Z,2.1
2022-10-09T19:19:00.552Z,2
2022-10-09T19:24:00.865Z,2
2022-10-09T19:29:01.332Z,2.2
2022-10-09T19:34:01.734Z,1.9
2022-10-09T19:39:02.137Z,2
2022-10-09T19:44:02.701Z,2
2022-10-09T19:49:03.060Z,2.1
2022-10-09T19:54:03.402Z,2.1
2022-10-09T19:59:03.725Z,2
2022-10-09T20:04:04.064Z,2.1
2022-10-09T20:09:04.398Z,2.3
2022-10-09T20:14:04.748Z,2.1
2022-10-09T20:19:05.134Z,1.8
2022-10-09T20:24:05.881Z,1.7
2022-10-09T20:29:06.610Z,1.6
2022-10-09T20:34:06.975Z,1.8
2022-10-09T20:39:07.523Z,1.8
2022-10-09T20:44:07.921Z,1.9
2022-10-09T20:49:08.420Z,1.7
2022-10-09T20:54:08.744Z,2
2022-10-09T20:59:09.157Z,1.7
2022-10-09T21:04:09.529Z,1.9
2022-10-09T21:09:09.956Z,2.4
2022-10-09T21:14:10.360Z,2.1
2022-10-09T21:19:10.736Z,2
2022-10-09T21:24:11.054Z,2.2
2022-10-09T21:29:11.477Z,2.2
2022-10-09T21:34:11.843Z,2.1
2022-10-09T21:39:12.257Z,2.3
2022-10-09T21:44:12.668Z,2.1
2022-10-09T21:49:12.998Z,2.1
2022-10-09T21:54:13.412Z,1.9
2022-10-09T21:59:13.787Z,2.2
2022-10-09T22:04:14.178Z,1.8
2022-10-09T22:09:14.618Z,1.9
2022-10-09T22:14:14.973Z,2.1
2022-10-09T22:19:15.345Z,2.1
2022-10-09T22:24:15.702Z,1.9
2022-10-09T22:29:16.283Z,2.1
2022-10-09T22:34:16.992Z,2.1
2022-10-09T22:39:17.483Z,2.2
2022-10-09T22:44:18.064Z,2.1
2022-10-09T22:49:18.408Z,2.3
2022-10-09T22:54:18.856Z,2.3
2022-10-09T22:59:19.231Z,2.2
2022-10-09T23:04:19.616Z,2.1
2022-10-09T23:09:20.159Z,2.4
2022-10-09T23:14:20.486Z,2.2
2022-10-09T23:19:20.818Z,2.4
2022-10-09T23:24:21.530Z,2.5
2022-10-09T23:29:22.122Z,2.5
2022-10-09T23:34:22.571Z,2.8
2022-10-09T23:39:23.191Z,2.4
2022-10-09T23:44:23.671Z,2.5
2022-10-09T23:49:23.993Z,2.3
2022-10-09T23:54:24.640Z,2.3
2022-10-09T23:59:25.012Z,2.7
